Synarep, Washington
Current Conditions -  °F | °C
As of 4:53 AM on Monday 22 Dec 2014 (Local Time) from KOMK Reporting Station
Clear Clear  
Wind Chill: 29°   Ceiling: Unl
Heat Index: 33°   Visibility: 10mi
Dew Point: 28°   Wind: 5mph
Humidity: 82%   Direction: 200°SSW
Pressure: 30.04"   Gusts: NA
Location:  48.5231°N, 119.731°W
Report Text: KOMK 221253Z AUTO 20004KT 10SM CLR 01/M02 A3004 RMK AO2 SLP184 T00061022
Loading
Personal Weather Stations






























Interactive Weather Map New forecast layout! Learn more

10-Day Weather Forecast

Advertisements
Track Severe Weather on mobile